Terminal Aerodrome Forecast
Issued by NWS Louisville, KY

Home | Current Version | Previous Version | Text Only | Print | Product List | Glossary On
Versions: 1 2 3 4 5 6 7 8 9 10 11 12 13 14 15 16
000
FTUS43 KLMK 012000 AAA
TAFLEX
TAF AMD
KLEX 012026Z 0120/0218 24010KT 5SM BR VCSH BKN008 OVC015
     FM020000 29008KT 5SM BR VCSH OVC009
     FM020900 33005KT 6SM BR OVC015
     FM021400 36008KT 6SM BR BKN025=

USA.gov is the U.S. government's official web portal to all federal, state and local government web resources and services.